Data for 09/04/2007

Time Sea-Level Adjusted Pressure Absolute Pressure Temperature Relative Humidity Dew Point   
(mb) (inHg) (mb) (inHg) (C) (F) (%) (C) (F)
00:05 1016 30 845 24.95 21.4 70.5 21 -1.8 28.7
00:10 1016 30 845 24.95 21.7 71.1 20 -1.9 28.6
00:15 1016 30 845 24.95 21.9 71.3 20 -1.8 28.8
00:20 1016 30 845 24.95 22.2 71.9 20 -1.5 29.4
00:25 1015 29.97 845 24.95 22.2 71.9 20 -1.6 29.2
00:30 1015 29.97 845 24.95 22.2 72 21 -1.2 29.8
00:35 1015 29.97 845 24.95 22.1 71.7 21 -1.2 29.9
00:40 1015 29.97 845 24.95 22.1 71.7 20 -1.6 29.1
00:45 1015 29.97 845 24.95 22.2 71.9 20 -1.5 29.3
00:50 1015 29.97 845 24.95 22.2 71.9 21 -0.8 30.6
00:55 1015 29.97 845 24.95 22 71.7 21 -1.3 29.7
01:00 1015 29.97 845 24.95 21.9 71.3 23 -0.3 31.5
01:05 1015 29.97 845 24.95 21.5 70.7 21 -1.5 29.4
01:10 1015 29.97 844 24.92 21.8 71.3 21 -1 30.2
01:15 1015 29.97 844 24.92 21.9 71.3 21 -1.2 29.9
01:20 1015 29.97 844 24.92 22.2 72 20 -1.5 29.3
01:25 1015 29.97 844 24.92 22.5 72.5 20 -1.3 29.7
01:30 1015 29.97 844 24.92 22.5 72.5 21 -0.9 30.4
01:35 1015 29.97 844 24.92 22.2 72 21 -1.1 30
01:40 1015 29.97 844 24.92 22.2 71.9 22 -0.5 31.2
01:45 1015 29.97 844 24.92 22 71.5 21 -1.2 29.9
01:50 1015 29.97 844 24.92 21.8 71.2 22 -0.6 30.9
01:55 1015 29.97 844 24.92 21.4 70.5 23 -0.5 31
02:00 1015 29.97 844 24.92 21.3 70.3 23 -0.7 30.7
02:05 1015 29.97 844 24.92 21.5 70.7 22 -0.8 30.6
02:10 1015 29.97 844 24.92 21.6 70.9 22 -1 30.2
02:15 1015 29.97 844 24.92 21.9 71.3 21 -1 30.2
02:20 1015 29.97 844 24.92 22.1 71.8 21 -0.8 30.5
02:25 1015 29.97 844 24.92 22.2 71.9 21 -1 30.3
02:30 1015 29.97 844 24.92 22.2 72 21 -0.8 30.5
02:35 1015 29.97 844 24.92 22.1 71.7 22 -0.7 30.7
02:40 1015 29.97 844 24.92 21.9 71.3 22 -0.3 31.4
02:45 1015 29.97 844 24.92 21.7 71.1 22 -0.5 31.1
02:50 1015 29.97 844 24.92 21.9 71.5 21 -0.9 30.3
02:55 1015 29.97 844 24.92 22.2 71.9 22 -0.3 31.5
03:00 1014 29.94 844 24.92 22.2 72 22 -0.5 31.2
03:05 1014 29.94 844 24.92 22.3 72.1 21 -0.8 30.5
03:10 1014 29.94 844 24.92 22.6 72.7 21 -0.7 30.8
03:15 1014 29.94 844 24.92 22.4 72.3 22 -0.4 31.2
03:20 1014 29.94 844 24.92 22.4 72.2 22 -0.5 31.2
03:25 1014 29.94 843 24.89 22.4 72.2 22 -0.4 31.2
03:30 1014 29.94 843 24.89 22.1 71.9 22 -0.3 31.5
03:35 1014 29.94 843 24.89 21.9 71.3 23 -0.1 31.8
03:40 1014 29.94 843 24.89 21.7 71 23 -0.1 31.9
03:45 1014 29.94 843 24.89 21.4 70.4 23 -0.2 31.7
03:50 1014 29.94 843 24.89 21.6 70.9 23 -0.1 31.8
03:55 1014 29.94 843 24.89 21.8 71.2 23 -0.1 31.9
04:00 1014 29.94 843 24.89 21.5 70.7 23 -0 31.9
04:05 1014 29.94 843 24.89 21.4 70.5 23 -0.2 31.6
04:10 1014 29.94 843 24.89 21.4 70.5 23 -0.2 31.7
04:15 1014 29.94 843 24.89 21.6 70.8 23 -0.3 31.4
04:20 1014 29.94 843 24.89 21.9 71.5 22 -0.5 31.2
04:25 1014 29.94 843 24.89 22.1 71.7 22 -0.3 31.5
04:30 1014 29.94 843 24.89 22 71.7 22 -0.7 30.7
04:35 1014 29.94 843 24.89 22.1 71.7 23 0.2 32.3
04:40 1014 29.94 843 24.89 21.6 70.9 23 -0.4 31.3
04:45 1014 29.94 843 24.89 22.1 71.7 22 -0.3 31.4
04:50 1014 29.94 843 24.89 21.7 71 24 0.1 32.3
04:55 1014 29.94 843 24.89 21.4 70.5 23 -0.6 31
05:00 1014 29.94 843 24.89 21.7 71 23 0.1 32.1
05:05 1014 29.94 843 24.89 21.9 71.4 22 -0.9 30.4
05:10 1014 29.94 843 24.89 22.1 71.9 21 -0.8 30.6
05:15 1014 29.94 843 24.89 22.7 72.8 21 -0.7 30.7
05:20 1014 29.94 843 24.89 22.5 72.5 24 1 33.8
05:25 1014 29.94 843 24.89 22.4 72.4 22 -0.5 31.2
05:30 1014 29.94 843 24.89 22.3 72.1 21 -0.9 30.4
05:35 1014 29.94 843 24.89 22 71.7 22 -0.3 31.5
05:40 1014 29.94 843 24.89 21.6 70.9 24 0.2 32.3
05:45 1014 29.94 843 24.89 20.6 69 25 -0.2 31.7
05:50 1014 29.94 843 24.89 20.4 68.8 27 1.1 33.9
05:55 1014 29.94 843 24.89 20.4 68.7 24 -0.5 31.1
06:00 1014 29.94 843 24.89 20.6 69 24 -0.6 30.8
06:05 1014 29.94 843 24.89 20.8 69.5 23 -0.8 30.6
06:10 1014 29.94 843 24.89 20.8 69.4 24 -0.6 30.9
06:15 1014 29.94 843 24.89 20.9 69.6 23 -0.8 30.6
06:20 1014 29.94 843 24.89 20.8 69.5 23 -1.1 30
06:25 1014 29.94 843 24.89 21.2 70.2 22 -1.2 29.9
06:30 1014 29.94 843 24.89 21.2 70.2 22 -1.1 30.1
06:35 1014 29.94 843 24.89 21.2 70.2 22 -1.1 30
06:40 1014 29.94 843 24.89 21.1 69.9 23 -0.9 30.4
06:45 1014 29.94 843 24.89 21 69.8 23 -0.8 30.6
06:50 1014 29.94 843 24.89 21.1 70 22 -1.2 29.8
06:55 1013 29.91 843 24.89 21.1 70 22 -1.3 29.6
07:00 1013 29.91 843 24.89 21.1 70.1 22 -1.3 29.6
07:05 1014 29.94 843 24.89 21.1 70 22 -1.1 29.9
07:10 1013 29.91 843 24.89 21.3 70.3 22 -1.3 29.7
07:15 1013 29.91 843 24.89 21.5 70.7 21 -1.4 29.5
07:20 1013 29.91 843 24.89 21.8 71.2 21 -1.3 29.6
07:25 1013 29.91 843 24.89 21.9 71.4 21 -1.4 29.5
07:30 1013 29.91 843 24.89 22.2 71.9 21 -1.2 29.8
07:35 1013 29.91 843 24.89 22.4 72.3 20 -1.3 29.7
07:40 1013 29.91 843 24.89 22 71.6 22 -0.7 30.7
07:45 1013 29.91 843 24.89 21.8 71.2 21 -1.1 30.1
07:50 1013 29.91 842 24.86 22.1 71.9 21 -1.1 30.1
07:55 1013 29.91 842 24.86 22.5 72.5 21 -0.8 30.6
08:00 1013 29.91 842 24.86 22.5 72.5 21 -1 30.2
08:05 1013 29.91 842 24.86 22.9 73.3 20 -1.3 29.6
08:10 1013 29.91 842 24.86 23.5 74.3 19 -0.9 30.4
08:15 1013 29.91 842 24.86 23.7 74.7 20 -0.6 30.8
08:20 1013 29.91 842 24.86 23.9 75 20 -0.4 31.3
08:25 1013 29.91 842 24.86 24.2 75.6 19 -0.8 30.6
08:30 1013 29.91 842 24.86 24.5 76.1 19 -0.5 31.2
08:35 1013 29.91 842 24.86 24.8 76.6 19 -0 32
08:40 1013 29.91 842 24.86 25.2 77.3 19 0.3 32.6
08:45 1013 29.91 842 24.86 25.4 77.7 19 0.2 32.3
08:50 1013 29.91 842 24.86 25.6 78.1 19 0.4 32.8
08:55 1013 29.91 842 24.86 25.9 78.6 18 0.2 32.3
09:00 1013 29.91 842 24.86 26.4 79.4 18 0.5 32.9
09:05 1013 29.91 842 24.86 26.4 79.5 19 1 33.7
09:10 1013 29.91 842 24.86 26.2 79.1 23 3.4 38.1
09:15 1013 29.91 842 24.86 26.3 79.4 19 1.2 34.1
09:20 1013 29.91 842 24.86 26.8 80.2 18 1 33.9
09:25 1013 29.91 842 24.86 27.4 81.2 18 1.5 34.7
09:30 1013 29.91 842 24.86 27.6 81.7 18 1.2 34.2
09:35 1013 29.91 842 24.86 28 82.3 17 1.1 34
09:40 1013 29.91 842 24.86 28.7 83.6 16 0.9 33.6
09:45 1013 29.91 842 24.86 29.4 85 16 1.3 34.3
09:50 1013 29.91 842 24.86 30 85.9 15 1.2 34.2
09:55 1013 29.91 843 24.89 29.9 85.9 18 3.2 37.7
10:00 1014 29.94 843 24.89 28.6 83.5 25 7.2 45
10:05 1013 29.91 843 24.89 26.8 80.2 24 4.9 40.8
10:10 1013 29.91 843 24.89 26.5 79.6 25 5.3 41.6
10:15 1013 29.91 843 24.89 26.9 80.4 24 5 40.9
10:20 1013 29.91 843 24.89 26.3 79.3 26 5.7 42.3
10:25 1013 29.91 843 24.89 25.7 78.2 25 4.2 39.6
10:30 1013 29.91 843 24.89 25.6 78.1 24 3.7 38.7
10:35 1013 29.91 843 24.89 26.5 79.7 22 3.6 38.5
10:40 1013 29.91 843 24.89 26.5 79.8 22 3.4 38.1
10:45 1013 29.91 843 24.89 27.1 80.7 21 3.1 37.6
10:50 1013 29.91 843 24.89 27.4 81.3 22 4.1 39.4
10:55 1013 29.91 843 24.89 27.5 81.5 21 3.4 38.1
11:00 1013 29.91 842 24.86 27.5 81.4 22 4.1 39.4
11:05 1013 29.91 842 24.86 27.2 80.9 22 4.1 39.3
11:10 1013 29.91 842 24.86 26.8 80.3 23 4.2 39.6
11:15 1013 29.91 842 24.86 26.7 80 23 4.1 39.4
11:20 1013 29.91 842 24.86 26.9 80.5 23 4.2 39.6
11:25 1013 29.91 843 24.89 27.5 81.4 22 3.8 38.9
11:30 1013 29.91 843 24.89 27.9 82.1 22 4.3 39.7
11:35 1013 29.91 843 24.89 27.9 82.2 23 5 41
11:40 1013 29.91 843 24.89 28.1 82.6 23 5.4 41.7
11:45 1013 29.91 842 24.86 28.5 83.2 22 5.2 41.3
11:50 1013 29.91 842 24.86 29.3 84.7 21 4.7 40.5
11:55 1013 29.91 842 24.86 29.3 84.7 23 6.5 43.6
12:00 1013 29.91 842 24.86 28.3 83 25 6.7 44
12:05 1013 29.91 843 24.89 27.9 82.2 25 6.4 43.6
12:10 1013 29.91 843 24.89 27.9 82.1 26 6.6 43.9
12:15 1013 29.91 843 24.89 28.1 82.5 25 6.6 43.9
12:20 1014 29.94 843 24.89 27.7 81.8 26 6.7 44
12:25 1014 29.94 843 24.89 27.4 81.3 26 6.5 43.6
12:30 1014 29.94 843 24.89 27.3 81.1 26 6.6 43.9
12:35 1014 29.94 843 24.89 26.9 80.4 28 6.9 44.4
12:40 1014 29.94 843 24.89 26.5 79.7 29 7 44.7
12:45 1014 29.94 843 24.89 26 78.9 29 6.9 44.4
12:50 1014 29.94 843 24.89 25.7 78.2 30 7.1 44.7
12:55 1014 29.94 843 24.89 25.3 77.6 31 7.2 45
13:00 1014 29.94 843 24.89 25 77 31 7 44.7
13:05 1014 29.94 844 24.92 24.9 76.8 31 6.9 44.4
13:10 1014 29.94 843 24.89 25 77 30 6.7 44.1
13:15 1014 29.94 843 24.89 24.8 76.6 31 6.9 44.5
13:20 1014 29.94 843 24.89 24.8 76.6 31 6.6 43.8
13:25 1014 29.94 843 24.89 25 76.9 29 6.1 43
13:30 1014 29.94 843 24.89 25 77 30 6.3 43.4
13:35 1014 29.94 843 24.89 25.2 77.3 30 6.6 43.9
13:40 1014 29.94 843 24.89 24.9 76.9 31 6.7 44
13:45 1014 29.94 843 24.89 24.8 76.7 31 6.7 44
13:50 1014 29.94 843 24.89 24.7 76.4 32 7 44.5
13:55 1014 29.94 843 24.89 24.5 76 32 7 44.6
14:00 1014 29.94 843 24.89 24.4 76 32 7 44.6
14:05 1014 29.94 843 24.89 24.3 75.8 33 7.1 44.7
14:10 1013 29.91 842 24.86 24.1 75.4 34 7.3 45.1
14:15 1014 29.94 843 24.89 24.3 75.8 33 7.3 45.1
14:20 1014 29.94 843 24.89 24.8 76.6 32 7.4 45.3
14:25 1014 29.94 843 24.89 24.7 76.4 33 7.4 45.4
14:30 1014 29.94 843 24.89 24.8 76.6 33 7.6 45.7
14:35 1014 29.94 843 24.89 24.8 76.7 32 7.4 45.3
14:40 1014 29.94 843 24.89 24.8 76.7 33 7.6 45.6
14:45 1014 29.94 843 24.89 24.6 76.2 33 7.6 45.6
14:50 1014 29.94 843 24.89 24.3 75.8 33 7.1 44.7
14:55 1014 29.94 843 24.89 24.1 75.4 34 7.3 45.2
15:00 1014 29.94 843 24.89 24 75.1 35 7.8 46.1
15:05 1014 29.94 844 24.92 23.4 74.1 40 9.2 48.6
15:10 1014 29.94 844 24.92 22.3 72.1 43 9.3 48.7
15:15 1014 29.94 844 24.92 21.4 70.5 47 9.8 49.7
15:20 1014 29.94 844 24.92 21 69.8 45 8.9 47.9
15:25 1014 29.94 844 24.92 21.1 70 44 8.6 47.6
15:30 1014 29.94 844 24.92 21 69.8 45 8.9 48
15:35 1014 29.94 844 24.92 20.9 69.5 45 8.7 47.6
15:40 1014 29.94 843 24.89 21.1 70 44 8.5 47.3
15:45 1014 29.94 844 24.92 20.9 69.5 50 10.1 50.2
15:50 1014 29.94 844 24.92 20 67.9 56 10.9 51.7
15:55 1014 29.94 843 24.89 19.3 66.7 58 10.9 51.6
16:00 1014 29.94 843 24.89 19 66.2 58 10.7 51.3
16:05 1014 29.94 843 24.89 19 66.1 58 10.7 51.3
16:10 1014 29.94 843 24.89 18.9 66.1 60 11.1 52
16:15 1014 29.94 844 24.92 18.9 66 59 10.8 51.5
16:20 1015 29.97 844 24.92 19 66.2 58 10.6 51.1
16:25 1015 29.97 844 24.92 18.9 66 61 11.4 52.4
16:30 1015 29.97 844 24.92 18.7 65.7 61 11.1 52
16:35 1015 29.97 844 24.92 18.9 65.9 61 11.3 52.3
16:40 1015 29.97 844 24.92 19 66.2 61 11.3 52.4
16:45 1015 29.97 844 24.92 18.8 65.8 64 11.8 53.3
16:50 1015 29.97 844 24.92 18.5 65.4 66 12.2 54
16:55 1015 29.97 844 24.92 18.2 64.7 70 12.6 54.7
17:00 1015 29.97 844 24.92 17.6 63.7 71 12.3 54.2
17:05 1015 29.97 844 24.92 17.1 62.7 70 11.7 53.1
17:10 1015 29.97 844 24.92 17 62.7 73 12.2 54
17:15 1015 29.97 844 24.92 16.9 62.4 73 12.1 53.7
17:20 1015 29.97 844 24.92 16.9 62.5 72 11.9 53.4
17:25 1015 29.97 844 24.92 16.9 62.4 73 12.1 53.8
17:30 1015 29.97 844 24.92 16.9 62.4 73 12 53.5
17:35 1015 29.97 844 24.92 17.1 62.7 76 12.9 55.2
17:40 1015 29.97 844 24.92 17.1 62.7 76 12.8 55
17:45 1015 29.97 844 24.92 16.8 62.2 78 13 55.4
17:50 1015 29.97 844 24.92 16.5 61.8 80 13.1 55.6
17:55 1014 29.94 844 24.92 16.3 61.4 84 13.7 56.6
18:00 1015 29.97 844 24.92 16.2 61.2 85 13.7 56.7
18:05 1015 29.97 844 24.92 16.1 61 87 14 57.1
18:10 1015 29.97 844 24.92 16.4 61.4 79 12.8 55
18:15 1015 29.97 844 24.92 16.3 61.4 83 13.5 56.3
18:20 1015 29.97 844 24.92 16 60.8 86 13.6 56.5
18:25 1014 29.94 844 24.92 15.7 60.3 86 13.5 56.3
18:30 1014 29.94 843 24.89 15.6 60 88 13.6 56.4
18:35 1014 29.94 843 24.89 15.5 59.8 85 13 55.4
18:40 1014 29.94 843 24.89 15.6 60.1 84 13 55.4
18:45 1014 29.94 843 24.89 15.6 60.1 87 13.4 56.2
18:50 1014 29.94 843 24.89 15.4 59.8 87 13.2 55.8
18:55 1013 29.91 843 24.89 15.4 59.6 86 13 55.5
19:00 1014 29.94 843 24.89 15.5 59.9 83 12.6 54.6
19:05 1014 29.94 843 24.89 15.9 60.6 83 13 55.4
19:10 1014 29.94 843 24.89 16 60.8 80 12.5 54.6
19:15 1014 29.94 843 24.89 16.3 61.4 78 12.6 54.7
19:20 1014 29.94 843 24.89 16.6 61.9 78 12.8 55.1
19:25 1014 29.94 843 24.89 16.7 62 81 13.4 56.2
19:30 1014 29.94 843 24.89 16.5 61.6 83 13.5 56.4
19:35 1014 29.94 843 24.89 16.5 61.7 83 13.6 56.4
19:40 1014 29.94 843 24.89 16.4 61.4 84 13.7 56.7
19:45 1014 29.94 843 24.89 16.2 61.2 84 13.5 56.4
19:50 1014 29.94 843 24.89 16.3 61.3 85 13.7 56.7
19:55 1014 29.94 843 24.89 16.2 61.2 84 13.5 56.4
20:00 1014 29.94 843 24.89 16 60.7 85 13.4 56.2
20:05 1014 29.94 843 24.89 15.7 60.2 90 14.1 57.3
20:10 1014 29.94 843 24.89 15.5 59.9 89 13.6 56.5
20:15 1014 29.94 843 24.89 15.1 59.1 89 13.3 56
20:20 1014 29.94 843 24.89 15 58.9 91 13.5 56.3
20:25 1014 29.94 843 24.89 15.3 59.5 90 13.7 56.7
20:30 1014 29.94 843 24.89 15.1 59.1 90 13.5 56.3
20:35 1014 29.94 843 24.89 15.2 59.3 87 13.1 55.6
20:40 1014 29.94 843 24.89 15.3 59.5 83 12.5 54.5
20:45 1014 29.94 843 24.89 15.5 59.9 82 12.5 54.5
20:50 1014 29.94 843 24.89 15.6 60.1 82 12.5 54.5
20:55 1014 29.94 844 24.92 15.7 60.3 81 12.5 54.5
21:00 1014 29.94 844 24.92 15.7 60.2 82 12.7 54.8
21:05 1015 29.97 844 24.92 15.4 59.7 81 12.2 54
21:10 1015 29.97 844 24.92 15.1 59.2 86 12.8 55.1
21:15 1015 29.97 844 24.92 14.8 58.6 85 12.3 54.2
21:20 1015 29.97 844 24.92 14.9 58.8 82 11.8 53.3
21:25 1015 29.97 844 24.92 15.3 59.5 80 11.9 53.5
21:30 1015 29.97 844 24.92 15.4 59.7 82 12.4 54.3
21:35 1015 29.97 844 24.92 15.3 59.5 85 12.7 54.9
21:40 1015 29.97 844 24.92 15.2 59.3 84 12.5 54.5
21:45 1014 29.94 844 24.92 14.9 58.9 85 12.5 54.6
21:50 1014 29.94 844 24.92 14.7 58.5 84 12.1 53.8
21:55 1014 29.94 843 24.89 14.8 58.6 83 11.9 53.5
22:00 1014 29.94 844 24.92 14.8 58.7 82 11.8 53.2
22:05 1014 29.94 844 24.92 14.9 58.9 81 11.8 53.2
22:10 1014 29.94 843 24.89 15 59.1 80 11.7 53
22:15 1014 29.94 843 24.89 15 59.1 82 12.1 53.8
22:20 1014 29.94 843 24.89 15.4 59.7 77 11.3 52.4
22:25 1014 29.94 843 24.89 15.5 59.8 77 11.5 52.7
22:30 1014 29.94 843 24.89 15.5 59.9 79 12 53.6
22:35 1014 29.94 843 24.89 15.6 60.1 76 11.3 52.4
22:40 1014 29.94 843 24.89 15.5 59.9 77 11.5 52.7
22:45 1014 29.94 843 24.89 15.5 59.8 76 11.3 52.3
22:50 1014 29.94 843 24.89 15.6 60.1 79 12 53.5
22:55 1014 29.94 844 24.92 15.4 59.6 78 11.5 52.8
23:00 1014 29.94 843 24.89 15.2 59.4 79 11.7 53
23:05 1014 29.94 843 24.89 14.9 58.9 80 11.5 52.7
23:10 1014 29.94 843 24.89 14.7 58.5 82 11.7 53.1
23:15 1014 29.94 843 24.89 14.4 58 82 11.5 52.6
23:20 1014 29.94 843 24.89 14.6 58.3 80 11.2 52.1
23:25 1014 29.94 843 24.89 14.7 58.5 80 11.3 52.4
23:30 1014 29.94 843 24.89 14.7 58.4 80 11.4 52.5
23:35 1014 29.94 843 24.89 14.6 58.2 81 11.3 52.3
23:40 1013 29.91 843 24.89 14.5 58.2 80 11.2 52.2
23:45 1013 29.91 843 24.89 14.5 58.1 79 11 51.8
23:50 1013 29.91 842 24.86 14.7 58.4 80 11.3 52.4
23:55 1013 29.91 842 24.86 14.6 58.2 80 11.1 52
24:00 1013 29.91 842 24.86 14.5 58.2 80 11.1 51.9